Aérodrome :
LOGIN :

S'inscrire | Disclaimer

   EN    FR    IT 

 










Légende :    VFR   VFR Marginal   IFR   IFR Intensif   IFR Très Intensif
Visi : 
Plafond : 
>= 8 km
>= 3000ft
5 à 8 km
1000 à 3000 ft
1500m à 5 km
500 à 1000 ft
800 à 1500m
200 à 500 ft
< 800m
< 200 ft
Symboles :   Orages  Brouillard  Fortes neiges  Fortes précipitations  Vent > 20 kt
SIGMETs :   Divers  Orages  Givrage  Turbulence  Onde Orograph.  Cendres Volcan.






- Altitude de l'aérodrome : 616 ft
- Code IATA : PUF


LFBP - Pau

DERNIER METAR :
  • 032330Z AUTO 23002KT 9999 SCT036 SCT042 BKN052 16/13 Q1025 NOSIG

METARs EXPIRÉS :
  • 032300Z AUTO 24003KT 9999 BKN039 BKN050 16/13 Q1025 NOSIG
  • 032230Z AUTO 26004KT 9999 FEW056 15/12 Q1025 NOSIG
  • 032200Z AUTO 27004KT 9999 SCT056 16/12 Q1025 NOSIG
  • 032130Z AUTO 27005KT 9999 FEW046 BKN056 17/13 Q1025 NOSIG
  • 032100Z AUTO 29004KT 9999 SCT039 BKN054 17/13 Q1025 NOSIG

TAF TAF LFBP
Valide du 04 à 00h jusqu'au 05 à 00h UTC


032300Z 0400/0424 VRB03KT 9999 SCT050
PROB30
TEMPO 0403/0406 4000 BR
BECMG 0412/0414 33008KT CAVOK



MET'MAP, la Météo Aéronautique d'un coup d'oeil ! - Copyright ORBIFLY Décembre 2007 - Disclaimer

ORBIFLY MET'MAP TEAM :

Programmation & Développement : Alexandra Zaïnal
Sur une idée originale de : Baudouin d'Aumeries
Assistance à la programmation : Marc-Olivier Méhu
Soutien technique & logistique : Manuel Goepfert

Contact : metmap@orbifly.com




SOURCES & CREDITS :

   NOAA